Time;durP1;ratioP1;P1;durP2;ratioP2;P2;SDS_P1;SDS_P2;PMS_P1;PMS_P2;Temp;Humidity;BMP_temperature;BMP_pressure;BME280_temperature;BME280_humidity;BME280_pressure;Samples;Min_cycle;Max_cycle;Signal;HPM_P1;HPM_P2
2021/08/05 00:02:23;;;;;;;;;;;;;;;15.89;60.65;100631.56;1724705;82;20225;-77
2021/08/05 00:04:49;;;;;;;;;;;;;;;15.88;60.76;100629.86;1718942;82;20097;-77
2021/08/05 00:07:16;;;;;;;;;;;;;;;15.87;60.82;100627.31;1723603;82;20219;-77
2021/08/05 00:09:43;;;;;;;;;;;;;;;15.86;60.85;100632.12;1719115;82;20107;-77
2021/08/05 00:12:21;;;;;;;;;;;;;;;15.83;61.01;100630.48;1724918;81;20128;-77
2021/08/05 00:14:47;;;;;;;;;;;;;;;15.85;61.10;100632.58;1742698;82;20265;-77
2021/08/05 00:17:13;;;;;;;;;;;;;;;15.88;61.15;100626.40;1749235;81;20308;-77
2021/08/05 00:19:40;;;;;;;;;;;;;;;15.90;61.09;100627.20;1754673;80;21567;-77
2021/08/05 00:22:06;;;;;;;;;;;;;;;15.89;61.26;100626.80;1761052;81;20117;-77
2021/08/05 00:24:32;;;;;;;;;;;;;;;15.91;61.32;100628.89;1759625;81;20102;-77
2021/08/05 00:26:58;;;;;;;;;;;;;;;15.94;61.37;100627.48;1749991;80;20106;-77
2021/08/05 00:29:24;;;;;;;;;;;;;;;15.96;61.43;100628.72;1725979;81;20357;-77
2021/08/05 00:31:50;;;;;;;;;;;;;;;15.97;61.43;100625.20;1756844;80;20569;-77
2021/08/05 00:34:16;;;;;;;;;;;;;;;16.00;61.45;100625.94;1749043;81;20287;-77
2021/08/05 00:36:42;;;;;;;;;;;;;;;16.01;61.50;100625.03;1742548;81;20184;-77
2021/08/05 00:39:10;;;;;;;;;;;;;;;16.03;61.53;100621.06;1736744;80;20187;-77
2021/08/05 00:41:37;;;;;;;;;;;;;;;16.05;61.54;100617.94;1758300;81;20533;-77
2021/08/05 00:44:05;;;;;;;;;;;;;;;16.06;61.54;100621.80;1752748;80;20197;-77
2021/08/05 00:46:31;;;;;;;;;;;;;;;16.07;61.58;100614.81;1763171;81;20204;-77
2021/08/05 00:48:57;;;;;;;;;;;;;;;16.05;61.63;100613.58;1734597;81;20135;-77
2021/08/05 00:51:24;;;;;;;;;;;;;;;16.06;61.62;100620.95;1738381;81;20183;-77
2021/08/05 00:53:57;;;;;;;;;;;;;;;16.02;61.70;100611.08;1732154;80;20170;-77
2021/08/05 00:56:23;;;;;;;;;;;;;;;16.02;61.75;100612.84;1746912;81;20927;-77
2021/08/05 00:58:49;;;;;;;;;;;;;;;16.01;61.80;100608.53;1731025;81;20194;-76
2021/08/05 01:01:24;;;;;;;;;;;;;;;16.01;61.83;100604.62;1725923;82;20231;-76
2021/08/05 01:03:52;;;;;;;;;;;;;;;15.99;61.86;100595.55;1758887;80;20126;-76
2021/08/05 01:06:28;;;;;;;;;;;;;;;15.99;61.91;100598.16;1756957;80;20100;-76
2021/08/05 01:08:59;;;;;;;;;;;;;;;15.99;61.90;100590.34;1756393;81;20090;-76
2021/08/05 01:11:31;;;;;;;;;;;;;;;16.01;61.96;100592.88;1760612;81;20098;-76
2021/08/05 01:14:04;;;;;;;;;;;;;;;16.01;61.99;100588.97;1735455;80;20134;-76
2021/08/05 01:16:31;;;;;;;;;;;;;;;16.00;62.02;100587.27;1706470;81;20145;-76
2021/08/05 01:19:03;;;;;;;;;;;;;;;16.00;62.06;100588.58;1762705;81;20117;-76
2021/08/05 01:21:47;;;;;;;;;;;;;;;15.99;62.12;100583.81;1724131;82;20131;-76
2021/08/05 01:24:16;;;;;;;;;;;;;;;15.98;62.15;100579.96;1725829;81;20110;-76
2021/08/05 01:26:50;;;;;;;;;;;;;;;15.95;62.16;100578.32;1735298;80;20095;-76
2021/08/05 01:29:17;;;;;;;;;;;;;;;15.94;62.24;100583.59;1755621;80;20088;-76
2021/08/05 01:31:44;;;;;;;;;;;;;;;15.93;62.30;100585.80;1749524;80;20102;-76
2021/08/05 01:34:12;;;;;;;;;;;;;;;15.94;62.36;100578.38;1757917;80;20118;-76
2021/08/05 01:36:38;;;;;;;;;;;;;;;15.95;62.40;100578.32;1742826;80;20108;-76
2021/08/05 01:39:05;;;;;;;;;;;;;;;15.96;62.42;100572.66;1753673;81;20102;-76
2021/08/05 01:41:32;;;;;;;;;;;;;;;15.97;62.42;100579.56;1736532;82;20128;-76
2021/08/05 01:43:59;;;;;;;;;;;;;;;15.98;62.50;100574.74;1734568;80;20125;-76
2021/08/05 01:46:31;;;;;;;;;;;;;;;15.97;62.51;100570.44;1753266;81;20082;-76
2021/08/05 01:48:57;;;;;;;;;;;;;;;15.98;62.55;100570.83;1747673;80;20150;-76
2021/08/05 01:51:24;;;;;;;;;;;;;;;15.97;62.62;100565.22;1750818;81;20203;-76
2021/08/05 01:53:52;;;;;;;;;;;;;;;15.97;62.68;100568.68;1725391;80;152946;-76
2021/08/05 01:56:23;;;;;;;;;;;;;;;15.99;62.67;100572.08;1723949;83;20170;-76
2021/08/05 01:58:50;;;;;;;;;;;;;;;15.98;62.72;100582.11;1704912;82;21045;-76
2021/08/05 02:01:19;;;;;;;;;;;;;;;15.99;62.77;100578.59;1706152;83;20085;-76
2021/08/05 02:03:57;;;;;;;;;;;;;;;15.99;62.81;100575.98;1722027;83;20121;-76
2021/08/05 02:06:25;;;;;;;;;;;;;;;16.00;62.85;100575.08;1709362;82;20106;-76
2021/08/05 02:08:57;;;;;;;;;;;;;;;15.99;62.86;100569.92;1692384;83;20107;-76
2021/08/05 02:11:28;;;;;;;;;;;;;;;16.00;62.90;100568.56;1683619;84;20405;-76
2021/08/05 02:13:55;;;;;;;;;;;;;;;16.00;62.89;100569.87;1700225;83;20109;-76
2021/08/05 02:16:24;;;;;;;;;;;;;;;15.99;62.97;100564.70;1707154;82;20141;-76
2021/08/05 02:18:54;;;;;;;;;;;;;;;15.97;63.01;100563.47;1695764;83;20092;-76
2021/08/05 02:21:23;;;;;;;;;;;;;;;15.96;63.07;100564.38;1700907;83;20097;-76
2021/08/05 02:23:50;;;;;;;;;;;;;;;15.97;63.11;100567.83;1694802;83;20133;-76
2021/08/05 02:26:17;;;;;;;;;;;;;;;15.97;63.13;100570.44;1700188;83;20121;-76
2021/08/05 02:28:43;;;;;;;;;;;;;;;15.96;63.19;100562.22;1704833;83;20156;-76
2021/08/05 02:31:13;;;;;;;;;;;;;;;15.97;63.19;100563.92;1703794;83;20102;-76
2021/08/05 02:33:39;;;;;;;;;;;;;;;15.97;63.25;100560.00;1692160;84;20107;-76
2021/08/05 02:36:05;;;;;;;;;;;;;;;15.95;63.23;100564.43;1710910;83;20156;-76
2021/08/05 02:38:38;;;;;;;;;;;;;;;15.92;63.32;100565.40;1681528;84;20115;-76
2021/08/05 02:41:06;;;;;;;;;;;;;;;15.91;63.36;100575.89;1691350;84;20792;-76
2021/08/05 02:43:33;;;;;;;;;;;;;;;15.88;63.34;100563.36;1692013;83;20118;-76
2021/08/05 02:45:59;;;;;;;;;;;;;;;15.86;63.44;100559.97;1698248;83;20147;-76
2021/08/05 02:48:26;;;;;;;;;;;;;;;15.86;63.42;100558.66;1699331;83;20128;-76
2021/08/05 02:51:00;;;;;;;;;;;;;;;15.80;63.44;100561.50;1689871;84;20545;-76
2021/08/05 02:53:27;;;;;;;;;;;;;;;15.78;63.53;100558.11;1700707;83;20093;-76
2021/08/05 02:55:53;;;;;;;;;;;;;;;15.76;63.55;100556.01;1700448;83;20120;-76
2021/08/05 02:58:19;;;;;;;;;;;;;;;15.73;63.53;100561.34;1695099;83;20149;-76
2021/08/05 03:00:45;;;;;;;;;;;;;;;15.73;63.61;100556.13;1708141;82;20124;-76
2021/08/05 03:03:12;;;;;;;;;;;;;;;15.72;63.60;100564.86;1708277;82;20125;-76
2021/08/05 03:05:40;;;;;;;;;;;;;;;15.70;63.60;100556.24;1708042;83;20113;-76
2021/08/05 03:08:07;;;;;;;;;;;;;;;15.69;63.63;100554.55;1699461;83;20109;-76
2021/08/05 03:10:33;;;;;;;;;;;;;;;15.68;63.70;100555.45;1699349;83;20543;-76
2021/08/05 03:13:00;;;;;;;;;;;;;;;15.65;63.68;100560.78;1684380;83;20107;-76
2021/08/05 03:15:28;;;;;;;;;;;;;;;15.65;63.71;100563.84;1692769;83;20132;-76
2021/08/05 03:17:54;;;;;;;;;;;;;;;15.64;63.70;100562.14;1697594;83;20144;-76
2021/08/05 03:20:20;;;;;;;;;;;;;;;15.60;63.74;100564.02;1720583;83;20102;-76
2021/08/05 03:22:46;;;;;;;;;;;;;;;15.59;63.75;100562.34;1720069;83;20105;-76
2021/08/05 03:25:12;;;;;;;;;;;;;;;15.58;63.78;100557.19;1718989;83;20121;-76
2021/08/05 03:27:39;;;;;;;;;;;;;;;15.56;63.82;100561.12;1717359;83;20104;-76
2021/08/05 03:30:07;;;;;;;;;;;;;;;15.53;63.81;100561.23;1711009;83;20119;-76
2021/08/05 03:32:36;;;;;;;;;;;;;;;15.51;63.87;100556.08;1692889;83;20139;-76
2021/08/05 03:35:03;;;;;;;;;;;;;;;15.48;63.95;100553.59;1702879;83;20199;-76
2021/08/05 03:37:29;;;;;;;;;;;;;;;15.48;64.02;100555.34;1695486;83;21174;-76
2021/08/05 03:40:04;;;;;;;;;;;;;;;15.50;64.04;100557.44;1699328;83;20156;-76
2021/08/05 03:42:30;;;;;;;;;;;;;;;15.51;64.06;100552.63;1709304;83;20109;-76
2021/08/05 03:44:56;;;;;;;;;;;;;;;15.51;64.10;100550.87;1709745;83;20227;-76
2021/08/05 03:47:22;;;;;;;;;;;;;;;15.54;64.16;100550.75;1717172;83;20093;-76
2021/08/05 03:49:49;;;;;;;;;;;;;;;15.55;64.18;100549.00;1718370;83;20122;-76
2021/08/05 03:52:15;;;;;;;;;;;;;;;15.57;64.21;100548.97;1702589;82;20412;-76
2021/08/05 03:54:41;;;;;;;;;;;;;;;15.59;64.18;100545.41;1595392;82;10001420;-76
2021/08/05 03:57:14;;;;;;;;;;;;;;;15.61;64.23;100543.55;1677837;84;20107;-76
2021/08/05 03:59:40;;;;;;;;;;;;;;;15.63;64.27;100539.13;1709210;83;20117;-76
2021/08/05 04:02:06;;;;;;;;;;;;;;;15.65;64.32;100543.84;1719169;83;20116;-76
2021/08/05 04:04:32;;;;;;;;;;;;;;;15.63;64.28;100548.71;1717284;82;20093;-76
2021/08/05 04:06:59;;;;;;;;;;;;;;;15.65;64.38;100548.20;1713258;83;20124;-76
2021/08/05 04:09:25;;;;;;;;;;;;;;;15.67;64.39;100548.54;1702858;83;20093;-76
2021/08/05 04:11:53;;;;;;;;;;;;;;;15.67;64.46;100543.78;1718634;82;20101;-76
2021/08/05 04:14:19;;;;;;;;;;;;;;;15.66;64.47;100541.63;1711382;83;20093;-76
2021/08/05 04:16:45;;;;;;;;;;;;;;;15.68;64.59;100541.11;1702056;83;20270;-76
2021/08/05 04:19:12;;;;;;;;;;;;;;;15.75;64.65;100546.94;1706723;83;20126;-76
2021/08/05 04:21:37;;;;;;;;;;;;;;;15.81;64.69;100541.04;1697892;83;20757;-76
2021/08/05 04:24:04;;;;;;;;;;;;;;;15.86;64.67;100545.63;1703684;82;20123;-76
2021/08/05 04:26:30;;;;;;;;;;;;;;;15.92;64.72;100552.81;1718010;83;20129;-76
2021/08/05 04:28:59;;;;;;;;;;;;;;;15.98;64.75;100552.58;1704513;83;20551;-76
2021/08/05 04:31:25;;;;;;;;;;;;;;;16.06;64.74;100551.82;1679047;84;20122;-76
2021/08/05 04:33:51;;;;;;;;;;;;;;;16.14;64.76;100554.95;1699970;82;20887;-76
2021/08/05 04:36:17;;;;;;;;;;;;;;;16.19;64.76;100548.64;1707415;83;20117;-76
2021/08/05 04:38:59;;;;;;;;;;;;;;;16.26;64.58;100545.33;1720206;83;20121;-76
2021/08/05 04:41:25;;;;;;;;;;;;;;;16.32;64.75;100544.23;1702599;82;20170;-76
2021/08/05 04:43:51;;;;;;;;;;;;;;;16.40;64.75;100542.16;1721044;83;20095;-76
2021/08/05 04:46:18;;;;;;;;;;;;;;;16.45;64.83;100538.45;1723760;82;20688;-76
2021/08/05 04:48:44;;;;;;;;;;;;;;;16.54;64.76;100534.61;1728600;82;20172;-76
2021/08/05 04:51:10;;;;;;;;;;;;;;;16.58;64.66;100539.24;1707942;81;20191;-76
2021/08/05 04:53:36;;;;;;;;;;;;;;;16.57;64.62;100531.87;1705916;82;20671;-76
2021/08/05 04:56:02;;;;;;;;;;;;;;;16.53;64.69;100536.37;1709502;83;20721;-76
2021/08/05 04:58:36;;;;;;;;;;;;;;;16.54;64.78;100539.38;1690825;84;20541;-76
2021/08/05 05:01:02;;;;;;;;;;;;;;;16.57;64.88;100532.33;1722248;81;20263;-76
2021/08/05 05:03:28;;;;;;;;;;;;;;;16.61;64.77;100533.89;1747484;81;20116;-76
2021/08/05 05:05:56;;;;;;;;;;;;;;;16.64;64.93;100538.95;1688055;83;20477;-76
2021/08/05 05:08:23;;;;;;;;;;;;;;;16.69;64.92;100535.73;1720249;82;20224;-76
2021/08/05 05:10:52;;;;;;;;;;;;;;;16.71;64.86;100536.05;1724990;82;20635;-76
2021/08/05 05:13:18;;;;;;;;;;;;;;;16.75;64.96;100532.40;1729410;82;20095;-76
2021/08/05 05:15:45;;;;;;;;;;;;;;;16.86;65.02;100538.47;1713073;83;20149;-76
2021/08/05 05:18:19;;;;;;;;;;;;;;;17.00;65.08;100540.03;1709884;82;20462;-76
2021/08/05 05:20:45;;;;;;;;;;;;;;;17.15;65.02;100534.13;1702032;82;20435;-76
2021/08/05 05:23:11;;;;;;;;;;;;;;;17.26;64.79;100534.08;1707906;82;20146;-76
2021/08/05 05:25:38;;;;;;;;;;;;;;;17.38;65.03;100537.00;1704732;82;21552;-76
2021/08/05 05:28:05;;;;;;;;;;;;;;;17.54;65.03;100540.61;1728421;81;20445;-76
2021/08/05 05:30:31;;;;;;;;;;;;;;;17.78;65.06;100543.02;1707584;83;20136;-76
2021/08/05 05:32:57;;;;;;;;;;;;;;;18.03;65.08;100543.55;1724230;81;20452;-76
2021/08/05 05:35:23;;;;;;;;;;;;;;;18.38;65.09;100535.73;1745799;81;20910;-76
2021/08/05 05:37:51;;;;;;;;;;;;;;;18.81;64.67;100533.12;1717842;81;20441;-76
2021/08/05 05:40:17;;;;;;;;;;;;;;;19.20;64.68;100536.75;1707334;83;20427;-76
2021/08/05 05:42:43;;;;;;;;;;;;;;;19.48;64.38;100533.02;1706506;83;20404;-76
2021/08/05 05:45:11;;;;;;;;;;;;;;;19.63;64.25;100537.08;1722172;83;20401;-76
2021/08/05 05:47:44;;;;;;;;;;;;;;;19.77;64.20;100531.42;1701089;82;20847;-76
2021/08/05 05:50:10;;;;;;;;;;;;;;;19.89;64.08;100532.98;1712947;83;20265;-76
2021/08/05 05:52:38;;;;;;;;;;;;;;;20.01;64.08;100533.62;1694872;83;20413;-76
2021/08/05 05:55:05;;;;;;;;;;;;;;;20.14;63.97;100531.53;1719685;83;20737;-76
2021/08/05 05:57:31;;;;;;;;;;;;;;;20.21;63.94;100532.49;1710355;82;20400;-76
2021/08/05 05:59:57;;;;;;;;;;;;;;;20.42;64.06;100528.64;1712906;83;20209;-76
2021/08/05 06:02:23;;;;;;;;;;;;;;;20.63;63.81;100532.64;1693969;83;20809;-76
2021/08/05 06:04:49;;;;;;;;;;;;;;;20.72;63.50;100532.56;1691173;83;20247;-76
2021/08/05 06:07:15;;;;;;;;;;;;;;;20.76;63.71;100527.03;1698122;83;20785;-76
2021/08/05 06:09:41;;;;;;;;;;;;;;;20.87;63.47;100528.99;1709778;81;20513;-76
2021/08/05 06:12:07;;;;;;;;;;;;;;;20.76;63.39;100525.72;1713707;82;20732;-76
2021/08/05 06:14:33;;;;;;;;;;;;;;;20.84;63.61;100522.61;1732392;82;20220;-76
2021/08/05 06:16:59;;;;;;;;;;;;;;;21.01;63.59;100526.84;1724732;82;20204;-76
2021/08/05 06:19:25;;;;;;;;;;;;;;;21.08;63.34;100521.13;1728851;82;20407;-76
2021/08/05 06:21:51;;;;;;;;;;;;;;;21.22;63.40;100527.36;1733717;82;20789;-76
2021/08/05 06:24:18;;;;;;;;;;;;;;;21.38;63.38;100524.98;1732576;82;20203;-76
2021/08/05 06:26:48;;;;;;;;;;;;;;;21.49;63.21;100526.94;1740982;82;20107;-76
2021/08/05 06:29:14;;;;;;;;;;;;;;;21.61;63.05;100525.33;1730109;81;20094;-76
2021/08/05 06:31:40;;;;;;;;;;;;;;;21.73;63.03;100525.87;1741672;81;20475;-76
2021/08/05 06:34:07;;;;;;;;;;;;;;;21.86;62.99;100524.58;1738040;81;20733;-76
2021/08/05 06:36:32;;;;;;;;;;;;;;;22.07;62.96;100520.59;1711937;83;20083;-76
2021/08/05 06:38:58;;;;;;;;;;;;;;;22.19;62.63;100521.11;1723357;81;20167;-76
2021/08/05 06:41:25;;;;;;;;;;;;;;;22.39;62.78;100521.09;1728955;81;20425;-76
2021/08/05 06:43:51;;;;;;;;;;;;;;;22.80;62.85;100519.66;1736005;81;20108;-77
2021/08/05 06:46:17;;;;;;;;;;;;;;;23.32;62.53;100521.29;1725051;82;20157;-77
2021/08/05 06:48:43;;;;;;;;;;;;;;;23.92;62.30;100519.98;1727700;81;20877;-77
2021/08/05 06:51:10;;;;;;;;;;;;;;;24.43;62.08;100512.65;1740269;81;20280;-77
2021/08/05 06:53:39;;;;;;;;;;;;;;;25.02;61.77;100509.88;1717704;81;20103;-77
2021/08/05 06:56:05;;;;;;;;;;;;;;;25.48;61.21;100507.55;1699381;82;20140;-77
2021/08/05 06:58:32;;;;;;;;;;;;;;;25.76;61.37;100506.22;1692154;83;20522;-77
2021/08/05 07:01:00;;;;;;;;;;;;;;;26.27;61.21;100509.02;1724140;81;20118;-77
2021/08/05 07:03:25;;;;;;;;;;;;;;;26.54;60.72;100517.80;1727823;81;20126;-77
2021/08/05 07:05:52;;;;;;;;;;;;;;;26.77;60.81;100509.23;1713695;82;20090;-77
2021/08/05 07:08:18;;;;;;;;;;;;;;;27.29;60.83;100510.05;1714180;83;20210;-77
2021/08/05 07:10:44;;;;;;;;;;;;;;;27.56;59.90;100515.55;1684752;83;20266;-77
2021/08/05 07:13:09;;;;;;;;;;;;;;;27.61;59.62;100512.03;1731824;81;20278;-77
2021/08/05 07:15:35;;;;;;;;;;;;;;;27.71;59.75;100512.05;1697627;82;20163;-77
2021/08/05 07:18:02;;;;;;;;;;;;;;;27.60;59.66;100510.34;1718690;82;20121;-77
2021/08/05 07:20:28;;;;;;;;;;;;;;;27.52;59.42;100517.31;1712916;83;20099;-77
2021/08/05 07:22:54;;;;;;;;;;;;;;;27.43;59.50;100507.50;1702514;83;20090;-77
2021/08/05 07:25:20;;;;;;;;;;;;;;;27.37;59.11;100516.84;1695586;84;20248;-77
2021/08/05 07:27:47;;;;;;;;;;;;;;;27.56;59.27;100514.71;1686479;82;20108;-77
2021/08/05 07:30:15;;;;;;;;;;;;;;;27.77;59.09;100511.50;1713894;82;20126;-77
2021/08/05 07:32:41;;;;;;;;;;;;;;;28.00;59.04;100516.08;1720732;82;20429;-77
2021/08/05 07:35:08;;;;;;;;;;;;;;;28.06;58.71;100513.36;1711933;82;20136;-77
2021/08/05 07:37:34;;;;;;;;;;;;;;;27.99;58.05;100507.27;1716998;82;20123;-77
2021/08/05 07:40:01;;;;;;;;;;;;;;;27.77;57.96;100506.68;1697497;82;20121;-77
2021/08/05 07:42:27;;;;;;;;;;;;;;;27.61;57.88;100516.02;1706465;82;20180;-77
2021/08/05 07:44:53;;;;;;;;;;;;;;;27.33;57.20;100505.66;1707352;82;20153;-77
2021/08/05 07:47:19;;;;;;;;;;;;;;;27.46;57.37;100506.75;1705469;82;20084;-77
2021/08/05 07:49:45;;;;;;;;;;;;;;;27.54;56.91;100506.91;1728088;82;20131;-77
2021/08/05 07:52:11;;;;;;;;;;;;;;;27.75;56.71;100500.17;1727431;82;20107;-77
2021/08/05 07:54:40;;;;;;;;;;;;;;;27.89;56.60;100501.59;1703131;83;20102;-77
2021/08/05 07:57:07;;;;;;;;;;;;;;;27.85;55.51;100509.00;1698061;82;20149;-78
2021/08/05 07:59:33;;;;;;;;;;;;;;;27.68;56.15;100502.54;1700423;82;20138;-78
2021/08/05 08:01:59;;;;;;;;;;;;;;;27.83;55.86;100508.79;1699469;82;20235;-78
2021/08/05 08:04:33;;;;;;;;;;;;;;;27.68;55.60;100497.72;1707479;82;20129;-78
2021/08/05 08:07:00;;;;;;;;;;;;;;;27.67;55.26;100498.69;1706953;82;20189;-78
2021/08/05 08:09:26;;;;;;;;;;;;;;;27.61;55.19;100494.77;1714801;82;20126;-78
2021/08/05 08:11:55;;;;;;;;;;;;;;;27.78;55.17;100499.06;1710655;82;20139;-78
2021/08/05 08:14:21;;;;;;;;;;;;;;;27.88;55.00;100493.27;1694317;84;20136;-78
2021/08/05 08:16:48;;;;;;;;;;;;;;;27.83;54.64;100493.69;1717613;82;20085;-77
2021/08/05 08:19:15;;;;;;;;;;;;;;;27.86;54.53;100492.56;1716770;81;20107;-78
2021/08/05 08:21:41;;;;;;;;;;;;;;;27.80;54.36;100489.97;1717124;81;20103;-78
2021/08/05 08:24:10;;;;;;;;;;;;;;;27.56;54.24;100488.98;1699185;83;20215;-77
2021/08/05 08:26:36;;;;;;;;;;;;;;;27.36;54.13;100489.45;1718357;83;20132;-77
2021/08/05 08:29:03;;;;;;;;;;;;;;;27.31;54.13;100492.16;1679465;83;20164;-77
2021/08/05 08:31:29;;;;;;;;;;;;;;;27.20;53.83;100482.48;1723486;82;20103;-77
2021/08/05 08:33:55;;;;;;;;;;;;;;;27.04;53.22;100484.79;1698721;83;20137;-77
2021/08/05 08:36:22;;;;;;;;;;;;;;;26.94;53.51;100482.09;1712856;82;20085;-77
2021/08/05 08:38:47;;;;;;;;;;;;;;;26.81;53.13;100475.31;1708772;83;20322;-77
2021/08/05 08:41:14;;;;;;;;;;;;;;;26.76;53.23;100481.50;1702809;82;20238;-77
2021/08/05 08:43:40;;;;;;;;;;;;;;;26.64;53.08;100476.27;1713284;82;20107;-77
2021/08/05 08:46:09;;;;;;;;;;;;;;;26.64;53.03;100473.62;1702278;83;20103;-79
2021/08/05 08:48:36;;;;;;;;;;;;;;;26.48;52.57;100464.47;1702420;82;20164;-78
2021/08/05 08:51:03;;;;;;;;;;;;;;;26.34;52.59;100473.11;1712562;83;20092;-77
2021/08/05 08:53:35;;;;;;;;;;;;;;;26.22;52.62;100468.80;1719437;82;20149;-77
2021/08/05 08:56:01;;;;;;;;;;;;;;;26.22;52.60;100462.17;1723374;82;20393;-77
2021/08/05 08:58:27;;;;;;;;;;;;;;;26.66;52.31;100461.06;1714043;82;20429;-77
2021/08/05 09:00:53;;;;;;;;;;;;;;;27.23;52.25;100468.94;1717399;82;20138;-78
2021/08/05 09:03:21;;;;;;;;;;;;;;;27.75;52.08;100459.47;1704196;82;20150;-78
2021/08/05 09:05:47;;;;;;;;;;;;;;;28.26;52.03;100453.39;1727627;81;20805;-78
2021/08/05 09:08:14;;;;;;;;;;;;;;;28.53;52.10;100453.97;1736319;81;20131;-79
2021/08/05 09:10:40;;;;;;;;;;;;;;;28.94;51.88;100443.41;1707607;83;20130;-79
2021/08/05 09:13:07;;;;;;;;;;;;;;;28.94;51.60;100445.23;1709115;83;20255;-77
2021/08/05 09:15:45;;;;;;;;;;;;;;;28.45;51.22;100446.36;1684806;83;20165;-77
2021/08/05 09:18:26;;;;;;;;;;;;;;;28.27;50.94;100436.94;1709241;82;20104;-77
2021/08/05 09:21:09;;;;;;;;;;;;;;;28.19;51.07;100437.63;1717447;82;20465;-77
2021/08/05 09:24:03;;;;;;;;;;;;;;;27.65;51.12;100444.36;1714802;82;20129;-77
2021/08/05 09:26:47;;;;;;;;;;;;;;;26.96;50.72;100434.22;1701760;81;20110;-77
2021/08/05 09:29:24;;;;;;;;;;;;;;;26.55;50.62;100435.94;1704028;82;20127;-77
2021/08/05 09:31:54;;;;;;;;;;;;;;;26.14;50.49;100430.16;1722877;81;20131;-76
2021/08/05 09:34:35;;;;;;;;;;;;;;;25.89;50.37;100430.55;1724968;81;20090;-76
2021/08/05 09:37:04;;;;;;;;;;;;;;;25.67;50.18;100424.86;1729663;81;20538;-76
2021/08/05 09:39:32;;;;;;;;;;;;;;;25.58;50.12;100430.39;1727903;82;20140;-76
2021/08/05 09:42:02;;;;;;;;;;;;;;;25.42;49.89;100427.33;1730687;81;20175;-76
2021/08/05 09:44:41;;;;;;;;;;;;;;;25.21;49.87;100433.86;1714475;82;20105;-76
2021/08/05 09:47:12;;;;;;;;;;;;;;;25.06;49.72;100427.14;1693996;82;20139;-76
2021/08/05 09:49:49;;;;;;;;;;;;;;;24.96;49.80;100423.54;1697715;83;20131;-76
2021/08/05 09:52:27;;;;;;;;;;;;;;;25.00;49.67;100416.56;1698762;81;20139;-76
2021/08/05 09:54:53;;;;;;;;;;;;;;;25.05;49.59;100426.78;1701719;82;21190;-76
2021/08/05 09:57:24;;;;;;;;;;;;;;;24.99;49.43;100422.81;1694218;83;20133;-76
2021/08/05 09:59:59;;;;;;;;;;;;;;;24.94;49.36;100421.49;1714373;82;20128;-76
2021/08/05 10:02:27;;;;;;;;;;;;;;;24.83;49.32;100421.02;1711331;82;20128;-76
2021/08/05 10:05:02;;;;;;;;;;;;;;;24.72;49.27;100421.01;1707302;82;20103;-76
2021/08/05 10:07:32;;;;;;;;;;;;;;;24.67;49.28;100422.69;1716097;82;20109;-78
2021/08/05 10:09:58;;;;;;;;;;;;;;;24.56;49.29;100420.03;1702481;83;20095;-79
2021/08/05 10:12:30;;;;;;;;;;;;;;;24.40;49.16;100417.76;1715593;82;20094;-79
2021/08/05 10:14:56;;;;;;;;;;;;;;;24.34;49.26;100412.94;1710050;83;20096;-79
2021/08/05 10:17:22;;;;;;;;;;;;;;;24.31;49.32;100407.05;1706996;82;20443;-79
2021/08/05 10:19:48;;;;;;;;;;;;;;;24.29;49.14;100408.48;1693618;83;20554;-79
2021/08/05 10:22:15;;;;;;;;;;;;;;;24.21;49.03;100404.70;1716315;83;20085;-79
2021/08/05 10:24:45;;;;;;;;;;;;;;;24.15;49.06;100401.20;1726930;81;20098;-79
2021/08/05 10:27:12;;;;;;;;;;;;;;;24.15;49.00;100394.60;1684263;83;20133;-79
2021/08/05 10:29:39;;;;;;;;;;;;;;;24.10;49.06;100394.95;1703717;83;20139;-79
2021/08/05 10:32:07;;;;;;;;;;;;;;;24.07;48.77;100392.06;1722280;81;20130;-79
2021/08/05 10:34:35;;;;;;;;;;;;;;;24.12;48.87;100387.75;1707977;83;20118;-79
2021/08/05 10:37:02;;;;;;;;;;;;;;;24.21;48.95;100383.09;1739260;81;20108;-79
2021/08/05 10:39:29;;;;;;;;;;;;;;;24.34;48.70;100393.59;1735648;81;20091;-79
2021/08/05 10:41:59;;;;;;;;;;;;;;;24.35;48.75;100383.39;1722082;82;20099;-79
2021/08/05 10:44:26;;;;;;;;;;;;;;;24.37;48.64;100376.19;1720883;82;20099;-79
2021/08/05 10:46:53;;;;;;;;;;;;;;;24.44;48.65;100376.04;1688777;83;20101;-79
2021/08/05 10:49:19;;;;;;;;;;;;;;;24.57;48.54;100369.32;1709687;83;20513;-79
2021/08/05 10:51:45;;;;;;;;;;;;;;;24.71;48.61;100368.59;1678330;83;20144;-79
2021/08/05 10:54:11;;;;;;;;;;;;;;;24.75;48.38;100362.11;1718268;81;20169;-79
2021/08/05 10:56:37;;;;;;;;;;;;;;;24.80;48.39;100357.78;1690576;83;20152;-79
2021/08/05 10:59:12;;;;;;;;;;;;;;;25.00;48.46;100354.87;1718048;82;20509;-79
2021/08/05 11:01:54;;;;;;;;;;;;;;;25.21;48.34;100363.73;1681068;83;20167;-79
2021/08/05 11:04:39;;;;;;;;;;;;;;;25.13;48.18;100356.05;1693370;83;20133;-79
2021/08/05 11:07:24;;;;;;;;;;;;;;;25.04;48.31;100365.08;1674640;85;20147;-79
2021/08/05 11:09:51;;;;;;;;;;;;;;;24.98;48.33;100354.16;1685067;83;20127;-79
2021/08/05 11:12:39;;;;;;;;;;;;;;;24.99;48.44;100354.03;1691660;83;20223;-78
2021/08/05 11:15:29;;;;;;;;;;;;;;;24.96;48.31;100347.66;1684129;83;20160;-79
2021/08/05 11:18:19;;;;;;;;;;;;;;;25.01;48.42;100336.23;1666285;83;20542;-78
2021/08/05 11:20:58;;;;;;;;;;;;;;;25.01;48.38;100338.87;1696119;83;20152;-78
2021/08/05 11:26:02;;;;;;;;;;;;;;;25.03;48.31;100342.23;1678240;83;20178;-78
2021/08/05 11:28:31;;;;;;;;;;;;;;;25.01;48.11;100343.33;1679897;83;20161;-78
2021/08/05 11:31:05;;;;;;;;;;;;;;;24.89;48.22;100340.34;1679368;83;20133;-78
2021/08/05 11:33:42;;;;;;;;;;;;;;;24.84;48.23;100330.12;1689577;83;20107;-78
2021/08/05 11:36:32;;;;;;;;;;;;;;;24.86;48.25;100328.20;1710752;83;20201;-78
2021/08/05 11:39:22;;;;;;;;;;;;;;;24.90;48.29;100331.44;1716492;81;20106;-78
2021/08/05 11:42:14;;;;;;;;;;;;;;;24.81;48.02;100337.46;1739394;81;20100;-78
2021/08/05 11:44:48;;;;;;;;;;;;;;;24.66;47.95;100336.88;1732328;81;20093;-78
2021/08/05 11:47:39;;;;;;;;;;;;;;;24.55;47.95;100332.43;1738874;81;20580;-78
2021/08/05 11:50:13;;;;;;;;;;;;;;;24.44;47.94;100336.39;1737050;81;20203;-78
2021/08/05 11:52:50;;;;;;;;;;;;;;;24.38;48.14;100337.74;1738976;81;20183;-78
2021/08/05 11:55:27;;;;;;;;;;;;;;;24.36;47.97;100333.05;1725050;81;20158;-78
2021/08/05 11:57:55;;;;;;;;;;;;;;;24.34;47.99;100331.48;1689714;84;20560;-78
2021/08/05 12:00:24;;;;;;;;;;;;;;;24.25;48.00;100324.24;1720725;81;20186;-78
2021/08/05 12:02:52;;;;;;;;;;;;;;;24.22;47.91;100326.64;1711893;82;20318;-78
2021/08/05 12:05:20;;;;;;;;;;;;;;;24.20;47.99;100328.56;1729012;82;20094;-78
2021/08/05 12:07:48;;;;;;;;;;;;;;;24.21;48.12;100318.84;1733753;82;20110;-78
2021/08/05 12:10:26;;;;;;;;;;;;;;;24.21;48.06;100323.64;1733117;82;20083;-78
2021/08/05 12:12:55;;;;;;;;;;;;;;;24.25;48.10;100321.16;1721921;82;20095;-78
2021/08/05 12:15:33;;;;;;;;;;;;;;;24.19;47.99;100318.95;1709039;82;20125;-77
2021/08/05 12:18:11;;;;;;;;;;;;;;;24.18;47.98;100315.95;1711581;83;20443;-77
2021/08/05 12:20:41;;;;;;;;;;;;;;;24.19;48.05;100312.34;1713703;83;20133;-77
2021/08/05 12:23:15;;;;;;;;;;;;;;;24.19;47.94;100312.83;1713543;82;20113;-77
2021/08/05 12:25:48;;;;;;;;;;;;;;;24.16;47.92;100304.66;1705042;82;20131;-77
2021/08/05 12:28:16;;;;;;;;;;;;;;;24.16;47.89;100295.41;1721856;81;20107;-77
2021/08/05 12:30:44;;;;;;;;;;;;;;;24.19;48.02;100291.69;1720695;82;20105;-78
2021/08/05 12:33:26;;;;;;;;;;;;;;;24.26;48.02;100291.13;1640520;86;20135;-78
2021/08/05 12:36:12;;;;;;;;;;;;;;;24.36;47.96;100290.77;1639031;86;20105;-78
2021/08/05 12:39:08;;;;;;;;;;;;;;;24.43;47.98;100283.68;1635039;86;20195;-78
2021/08/05 12:41:49;;;;;;;;;;;;;;;24.47;47.89;100281.96;1645972;86;20124;-78
2021/08/05 12:44:20;;;;;;;;;;;;;;;24.53;47.95;100272.23;1644374;86;20206;-77
2021/08/05 12:46:48;;;;;;;;;;;;;;;24.57;47.84;100258.28;1656155;85;20105;-77
2021/08/05 12:49:15;;;;;;;;;;;;;;;24.59;47.77;100260.32;1639903;86;20184;-78